Latest Weather Observations for Creal Reef

IDQ60801

Issued at 12:32 pm EST Saturday 29 August 2015 (issued every 30 minutes, with the page automatically refreshed every 10 minutes)

About weather observations | Map of weather stations | Latest weather observations for QLD | Other Formats
Station Details ID: 200736 Name: CREAL REEF Lat: -20.53 Lon: 150.38 Height: 1.7 m
Data from the previous 72 hours. | See also: Recent months for locations in Queensland
Date/Time
EST
Temp
°C
App
Temp
°C
Dew
Point
Rel
Hum
%
Delta-T
°C
Wind Press
QNH
hPa
Press
MSL
hPa
Rain
since 9 am
mm
Dir
 
Spd
km/h
Gust
km/h
Spd
kts
Gust
kts
29/12:30pm 23.6 - - - - ESE 13 17 7 9 1018.7 - -
29/12:20pm 23.4 - - - - ESE 15 15 8 8 1018.8 1018.7 -
29/12:00pm 23.3 - - - - ESE 15 17 8 9 1019.0 - -
29/11:30am 23.0 - - - - ESE 17 20 9 11 1019.5 - -
29/11:20am 23.2 - - - - ESE 17 - 9 - - 1019.7 -
29/11:00am 23.3 - - - - ESE 15 17 8 9 1020.1 - -
29/10:30am 23.3 - - - - ESE 15 17 8 9 1020.5 - -
29/10:20am 23.3 - - - - ESE 17 - 9 - - 1020.5 -
29/10:00am 23.2 - - - - ESE 17 20 9 11 1020.5 - -
29/09:30am 23.0 - - - - ESE 22 24 12 13 1020.6 - -
29/09:20am 22.9 - - - - ESE 20 - 11 - - 1020.4 -
29/09:00am 23.0 - - - - ESE 19 22 10 12 1020.4 - -
29/08:30am 23.0 - - - - ESE 19 22 10 12 1020.2 - -
29/08:20am 23.1 - - - - ESE 19 - 10 - - 1020.0 -
29/08:00am 23.1 - - - - ESE 19 22 10 12 1019.8 - -
29/07:30am 22.6 - - - - ESE 19 20 10 11 1019.6 - -
29/07:20am 22.7 - - - - ESE 19 - 10 - - 1019.3 -
29/07:00am 22.7 - - - - ESE 19 24 10 13 1019.1 - -
29/06:30am 22.6 - - - - ESE 19 22 10 12 1018.9 - -
29/06:20am 22.6 - - - - ESE 19 - 10 - - 1018.7 -
29/06:00am 22.6 - - - - E 17 20 9 11 1018.6 - -
29/05:30am 22.5 - - - - E 19 20 10 11 1018.1 - -
29/05:20am 22.3 - - - - E 19 - 10 - - 1017.9 -
29/05:00am 22.5 - - - - E 19 22 10 12 1017.8 - -
29/04:30am 22.4 - - - - E 13 15 7 8 1017.7 - -
29/04:20am 22.5 - - - - E 15 - 8 - - 1017.5 -
29/04:00am 22.5 - - - - E 17 20 9 11 1017.6 - -
29/03:30am 22.4 - - - - ENE 17 19 9 10 1017.8 - -
29/03:20am 22.5 - - - - ENE 17 - 9 - - 1017.8 -
29/03:00am 22.6 - - - - ENE 19 22 10 12 1018.1 - -
29/02:30am 22.7 - - - - ENE 22 26 12 14 1018.2 - -
29/02:20am 22.6 - - - - ENE 20 - 11 - - 1018.1 -
29/02:00am 22.5 - - - - ENE 17 20 9 11 1018.5 - -
29/01:30am 22.5 - - - - ENE 24 28 13 15 1018.7 - -
29/01:20am 22.6 - - - - ENE 26 - 14 - - 1018.7 -
29/01:00am 22.5 - - - - ENE 30 35 16 19 1018.8 - -
29/12:30am 22.4 - - - - ENE 30 33 16 18 1019.1 - -
29/12:20am 22.7 - - - - ENE 28 - 15 - - 1019.2 -
29/12:00am 22.5 - - - - ENE 32 35 17 19 1019.3 - -
 
Date/Time
EST
Temp
°C
App
Temp
°C
Dew
Point
Rel
Hum
%
Delta-T
°C
Wind Press
QNH
hPa
Press
MSL
hPa
Rain
since 9 am
mm
Dir
 
Spd
km/h
Gust
km/h
Spd
kts
Gust
kts
28/11:30pm 22.7 - - - - ENE 28 32 15 17 1019.4 - -
28/11:20pm 22.5 - - - - ENE 30 - 16 - - 1019.4 -
28/11:00pm 22.5 - - - - E 26 30 14 16 1019.5 - -
28/10:30pm 22.6 - - - - E 26 28 14 15 1019.7 - -
28/10:20pm 22.6 - - - - E 24 - 13 - - 1019.6 -
28/10:00pm 22.7 - - - - E 24 28 13 15 1019.8 - -
28/09:30pm 22.6 - - - - ESE 20 24 11 13 1019.9 - -
28/09:20pm 22.7 - - - - ESE 20 - 11 - - 1019.8 -
28/09:00pm 22.8 - - - - E 20 24 11 13 1019.8 - -
28/08:30pm 22.9 - - - - ESE 20 24 11 13 1019.7 - -
28/08:20pm 22.8 - - - - ESE 22 - 12 - - 1019.5 -
28/08:00pm 22.8 - - - - ESE 22 26 12 14 1019.4 - -
28/07:30pm 22.7 - - - - ESE 15 17 8 9 1019.2 - -
28/07:20pm 22.7 - - - - ESE 17 - 9 - - 1018.9 -
28/07:00pm 22.9 - - - - ESE 15 15 8 8 1018.9 - -
28/06:30pm 22.6 - - - - SE 17 20 9 11 1018.6 - -
28/06:20pm 22.7 - - - - ESE 19 - 10 - - 1018.4 -
28/06:00pm 22.7 - - - - SE 22 24 12 13 1018.2 - -
28/05:30pm 22.8 - - - - SE 17 22 9 12 1017.9 - -
28/05:20pm 22.8 - - - - SE 19 - 10 - - 1017.8 -
28/05:00pm 22.8 - - - - SE 19 22 10 12 1017.5 - -
28/04:30pm 22.9 - - - - SE 22 26 12 14 1016.7 - -
28/04:20pm 22.8 - - - - SE 22 - 12 - - 1016.5 -
28/04:00pm 22.6 - - - - SSE 24 28 13 15 1016.7 - -
28/03:30pm 23.0 - - - - SSE 20 26 11 14 1016.8 - -
28/03:20pm 22.9 - - - - SE 22 - 12 - - 1016.8 -
28/03:00pm 22.7 - - - - SE 22 26 12 14 1016.9 - -
28/02:30pm 23.1 - - - - SE 19 22 10 12 1017.2 - -
28/02:20pm 23.0 - - - - SE 19 - 10 - - 1017.4 -
28/02:00pm 23.0 - - - - SE 19 20 10 11 1017.8 - -
28/01:30pm 23.1 - - - - ESE 20 22 11 12 1018.1 - -
28/01:20pm 23.0 - - - - ESE 20 - 11 - - 1018.1 -
28/01:00pm 22.9 - - - - ESE 19 20 10 11 1018.4 - -
28/12:30pm 23.0 - - - - ESE 20 24 11 13 1018.9 - -
28/12:20pm 22.9 - - - - ESE 20 - 11 - - 1018.9 -
28/12:00pm 22.8 - - - - ESE 22 24 12 13 1019.1 - -
28/11:30am 22.7 - - - - ESE 20 26 11 14 1019.6 - -
28/11:20am 22.8 - - - - ESE 22 - 12 - - 1019.7 -
28/11:00am 22.9 - - - - ESE 20 24 11 13 1020.1 - -
28/10:30am 23.0 - - - - ESE 22 26 12 14 1020.4 - -
28/10:20am 22.9 - - - - ESE 22 - 12 - - 1020.3 -
28/10:00am 22.9 - - - - ESE 22 24 12 13 1020.4 - -
28/09:30am 22.8 - - - - ESE 20 24 11 13 1020.4 - -
28/09:20am 22.9 - - - - ESE 22 - 12 - - 1020.3 -
28/09:00am 22.7 - - - - ESE 20 24 11 13 1020.3 - -
28/08:30am 22.6 - - - - ESE 20 24 11 13 1020.1 - -
28/08:20am 22.8 - - - - ESE 22 - 12 - - 1019.9 -
28/08:00am 22.7 - - - - ESE 22 26 12 14 1019.8 - -
28/07:30am 22.7 - - - - ESE 22 24 12 13 1019.7 - -
28/07:20am 22.7 - - - - ESE 20 - 11 - - 1019.4 -
28/07:00am 22.5 - - - - ESE 19 20 10 11 1019.3 - -
28/06:30am 22.3 - - - - ESE 22 26 12 14 1019.0 - -
28/06:20am 22.2 - - - - ESE 24 - 13 - - 1018.9 -
28/06:00am 22.2 - - - - ESE 26 30 14 16 1018.7 - -
28/05:30am 22.2 - - - - E 26 32 14 17 1018.5 - -
28/05:20am 22.2 - - - - E 28 - 15 - - 1018.3 -
28/05:00am 22.3 - - - - E 28 30 15 16 1018.2 - -
28/04:30am 22.3 - - - - E 24 28 13 15 1018.2 - -
28/04:20am 22.1 - - - - E 22 - 12 - - 1018.0 -
28/04:00am 22.3 - - - - E 24 28 13 15 1018.0 - -
28/03:30am 22.2 - - - - ESE 20 20 11 11 1018.3 - -
28/03:20am 22.2 - - - - ESE 20 - 11 - - 1018.3 -
28/03:00am 22.1 - - - - ESE 20 22 11 12 1018.5 - -
28/02:30am 22.2 - - - - ESE 20 24 11 13 1018.5 - -
28/02:20am 22.3 - - - - ESE 20 - 11 - - 1018.5 -
28/02:00am 22.2 - - - - E 22 26 12 14 1018.6 - -
28/01:30am 22.3 - - - - E 24 28 13 15 1018.6 - -
28/01:20am 22.2 - - - - ESE 24 - 13 - - 1018.7 -
28/01:00am 22.4 - - - - ESE 22 24 12 13 1019.2 - -
28/12:30am 22.4 - - - - ESE 22 26 12 14 1019.4 - -
28/12:20am 22.5 - - - - ESE 20 - 11 - - 1019.5 -
28/12:00am 22.6 - - - - ESE 22 26 12 14 1019.8 - -
 
Date/Time
EST
Temp
°C
App
Temp
°C
Dew
Point
Rel
Hum
%
Delta-T
°C
Wind Press
QNH
hPa
Press
MSL
hPa
Rain
since 9 am
mm
Dir
 
Spd
km/h
Gust
km/h
Spd
kts
Gust
kts
27/11:30pm 22.4 - - - - E 22 26 12 14 1019.8 - -
27/11:20pm 22.6 - - - - E 22 - 12 - - 1019.8 -
27/11:00pm 22.8 - - - - ESE 22 24 12 13 1020.0 - -
27/10:30pm 22.7 - - - - ESE 20 24 11 13 1020.2 - -
27/10:20pm 22.9 - - - - ESE 20 - 11 - - 1020.2 -
27/10:00pm 23.0 - - - - ESE 20 22 11 12 1020.4 - -
27/09:30pm 22.8 - - - - ESE 20 22 11 12 1020.5 - -
27/09:20pm 22.8 - - - - ESE 19 - 10 - - 1020.3 -
27/09:00pm 22.7 - - - - ESE 19 22 10 12 1020.4 - -
27/08:30pm 23.1 - - - - ESE 20 24 11 13 1020.5 - -
27/08:20pm 23.0 - - - - ESE 20 - 11 - - 1020.3 -
27/08:00pm 23.1 - - - - ESE 20 24 11 13 1020.1 - -
27/07:30pm 23.1 - - - - E 17 19 9 10 1019.7 - -
27/07:20pm 23.0 - - - - E 19 - 10 - - 1019.5 -
27/07:00pm 23.0 - - - - ESE 19 20 10 11 1019.2 - -
27/06:30pm 23.0 - - - - SE 19 20 10 11 1018.9 - -
27/06:20pm 22.8 - - - - ESE 19 - 10 - - 1018.8 -
27/06:00pm 22.9 - - - - ESE 19 20 10 11 1018.6 - -
27/05:30pm 23.1 - - - - E 19 20 10 11 1018.3 - -
27/05:20pm 23.1 - - - - E 17 - 9 - - 1018.1 -
27/05:00pm 23.2 - - - - E 15 17 8 9 1018.1 - -
27/04:30pm 23.2 - - - - E 15 17 8 9 1018.0 - -
27/04:20pm 23.3 - - - - E 15 - 8 - - 1017.8 -
27/04:00pm 23.2 - - - - E 17 19 9 10 1017.8 - -
27/03:30pm 23.7 - - - - E 17 20 9 11 1017.7 - -
27/03:20pm 23.5 - - - - E 17 - 9 - - 1017.6 -
27/03:00pm 23.7 - - - - E 19 20 10 11 1017.9 - -
27/02:30pm 24.0 - - - - E 15 19 8 10 1017.9 - -
27/02:20pm 23.8 - - - - E 17 - 9 - - 1017.9 -
27/02:00pm 23.8 - - - - E 20 24 11 13 1018.2 - -
27/01:30pm 24.0 - - - - E 17 20 9 11 1018.4 - -
27/01:20pm 23.8 - - - - E 19 - 10 - - 1018.4 -
27/01:00pm 23.7 - - - - E 22 26 12 14 1018.8 - -
27/12:30pm 23.5 - - - - ESE 22 28 12 15 1019.1 - -
27/12:20pm 23.5 - - - - ESE 22 - 12 - - 1019.2 -
27/12:00pm 23.4 - - - - ESE 22 26 12 14 1019.6 - -
27/11:30am 23.4 - - - - ESE 20 24 11 13 1019.9 - -
27/11:20am 23.2 - - - - ESE 24 - 13 - - 1019.9 -
27/11:00am 23.0 - - - - SE 24 28 13 15 1020.1 - -
27/10:30am 23.0 - - - - ESE 22 24 12 13 1020.5 - -
27/10:20am 23.1 - - - - ESE 20 - 11 - - 1020.5 -
27/10:00am 23.0 - - - - ESE 22 28 12 15 1020.6 - -
27/09:30am 23.2 - - - - E 22 26 12 14 1020.6 - -
27/09:20am 23.3 - - - - E 24 - 13 - - 1020.5 -
27/09:00am 23.2 - - - - E 22 24 12 13 1020.6 - -
27/08:30am 23.2 - - - - E 20 24 11 13 1020.4 - -
27/08:20am 23.0 - - - - E 22 - 12 - - 1020.3 -
27/08:00am 23.1 - - - - E 22 24 12 13 1020.4 - -
27/07:30am 23.1 - - - - E 24 30 13 16 1019.9 - -
27/07:20am 22.9 - - - - E 28 - 15 - - 1019.7 -
27/07:00am 22.8 - - - - E 26 30 14 16 1019.6 - -
27/06:30am 22.5 - - - - E 24 30 13 16 1019.3 - -
27/06:20am 22.5 - - - - E 24 - 13 - - 1019.2 -
27/06:00am 22.5 - - - - E 22 26 12 14 1019.2 - -
27/05:30am 22.6 - - - - E 22 26 12 14 1019.1 - -
27/05:20am 22.4 - - - - E 20 - 11 - - 1018.9 -
27/05:00am 22.5 - - - - E 22 26 12 14 1018.7 - -
27/04:30am 22.3 - - - - E 22 26 12 14 1018.6 - -
27/04:20am 22.4 - - - - E 24 - 13 - - 1018.4 -
27/04:00am 22.3 - - - - E 19 20 10 11 1018.5 - -
27/03:30am 22.4 - - - - E 19 22 10 12 1018.5 - -
27/03:20am 22.2 - - - - E 19 - 10 - - 1018.5 -
27/03:00am 22.4 - - - - E 19 20 10 11 1018.7 - -
27/02:30am 22.5 - - - - E 17 20 9 11 1018.9 - -
27/02:20am 22.4 - - - - E 19 - 10 - - 1018.8 -
27/02:00am 22.4 - - - - E 19 20 10 11 1018.9 - -
27/01:30am 22.4 - - - - E 20 22 11 12 1019.1 - -
27/01:20am 22.5 - - - - E 19 - 10 - - 1019.1 -
27/01:00am 22.5 - - - - E 22 24 12 13 1019.3 - -
27/12:30am 22.7 - - - - E 22 24 12 13 1019.6 - -
27/12:20am 22.7 - - - - E 22 - 12 - - 1019.6 -
27/12:00am 22.6 - - - - E 22 26 12 14 1019.9 - -
 
Date/Time
EST
Temp
°C
App
Temp
°C
Dew
Point
Rel
Hum
%
Delta-T
°C
Wind Press
QNH
hPa
Press
MSL
hPa
Rain
since 9 am
mm
Dir
 
Spd
km/h
Gust
km/h
Spd
kts
Gust
kts
26/11:30pm 22.6 - - - - E 19 22 10 12 1020.2 - -
26/11:20pm 22.6 - - - - E 19 - 10 - - 1020.2 -
26/11:00pm 22.7 - - - - E 17 19 9 10 1020.4 - -
26/10:30pm 22.8 - - - - E 19 20 10 11 1020.5 - -
26/10:20pm 22.7 - - - - E 19 - 10 - - 1020.3 -
26/10:00pm 22.7 - - - - E 19 20 10 11 1020.4 - -
26/09:30pm 22.8 - - - - E 19 20 10 11 1020.4 - -
26/09:20pm 22.9 - - - - E 19 - 10 - - 1020.3 -
26/09:00pm 22.6 - - - - E 19 22 10 12 1020.4 - -
26/08:30pm 22.7 - - - - E 20 22 11 12 1020.3 - -
26/08:20pm 22.7 - - - - E 19 - 10 - - 1020.1 -
26/08:00pm 22.8 - - - - E 20 24 11 13 1020.0 - -
26/07:30pm 22.8 - - - - E 20 24 11 13 1019.9 - -
26/07:20pm 22.8 - - - - E 20 - 11 - - 1019.6 -
26/07:00pm 22.7 - - - - E 20 24 11 13 1019.5 - -
26/06:30pm 22.8 - - - - E 20 22 11 12 1019.3 - -
26/06:20pm 22.7 - - - - E 19 - 10 - - 1019.2 -
26/06:00pm 22.7 - - - - E 19 20 10 11 1019.2 - -
26/05:30pm 22.9 - - - - E 19 22 10 12 1018.9 - -
26/05:20pm 22.9 - - - - E 19 - 10 - - 1018.7 -
26/05:00pm 23.1 - - - - E 17 20 9 11 1018.6 - -
26/04:30pm 23.0 - - - - E 17 19 9 10 1018.5 - -
26/04:20pm 23.1 - - - - E 15 - 8 - - 1018.3 -
26/04:00pm 23.2 - - - - E 19 20 10 11 1018.3 - -
26/03:30pm 23.3 - - - - E 17 20 9 11 1018.2 - -
26/03:20pm 23.1 - - - - E 17 - 9 - - 1018.1 -
26/03:00pm 23.2 - - - - E 17 19 9 10 1018.1 - -
26/02:30pm 22.9 - - - - E 17 22 9 12 1018.3 - -
26/02:20pm 23.4 - - - - E 17 - 9 - - 1018.3 -
26/02:00pm 23.2 - - - - E 17 20 9 11 1018.4 - -
26/01:30pm 23.2 - - - - E 19 20 10 11 1018.8 - -
26/01:20pm 23.0 - - - - E 19 - 10 - - 1018.9 -
26/01:00pm 23.2 - - - - E 19 20 10 11 1019.3 - -

Other Formats:

Comma delimited format used in spreadsheet applications
http://www.bom.gov.au/fwo/IDQ60801/IDQ60801.94371.axf

JavaScript Object Notation format (JSON) in row-major order
http://www.bom.gov.au/fwo/IDQ60801/IDQ60801.94371.json